FMCHFMNM

Guest
Details From FMCH - PRINCE SAID IBRAHIM
To FMNM - PHILIBERT TSIRANANA
Flight Number -
Tags generated
Created
Modified
Stats Distance 339 nm / 628 km
Max Altitude 35,000 ft / 10,668 m
Waypoints 6
Social Downloads 0
Likes 0
Share VATSIM

Download

Looking for another format? Having issues loading an existing format? Contact us
Advertisement - Login to hide

Notes

Basic altitude profile: - Ascent Rate: 2500ft/min - Ascent Speed: 250kts - Cruise Altitude: 35000ft - Cruise Speed: 420kts - Descent Rate: 1500ft/min - Descent Speed: 250kts Options: - Use NATs: yes - Use PACOTS: yes - Use low airways: yes - Use high airways: yes

Route

FMCH HAI UB790G SOAVI UR775 TIKAN FMNM

ID Type Via Altitude Latitude Longitude Leg Dist Tot Dist Heading (true) Name
O FMCH APT - 0 ft / 0 m -11.53366˚ 43.27185˚ - 0 nm - PRINCE SAID IBRAHIM
HAI VOR - 400 ft / 122 m -11.51501˚ 43.27669˚ 1 nm 1 nm 14° / 14° PRINCE SAID IBRAHIM VOR-DME
DZP VOR UB790G (AWY-HI) 35,000 ft / 10,668 m -12.81100˚ 45.28086˚ 141 nm 142 nm 124° / 123° DZAOUDZI PAMANDZI VOR-DME
SOAVI FIX UB790G (AWY-HI) 25,700 ft / 7,833 m -13.59333˚ 46.21194˚ 71 nm 214 nm 131° / 131° -
TIKAN FIX UR775 (AWY-HI) 23,500 ft / 7,163 m -14.65833˚ 46.27806˚ 64 nm 278 nm 177° / 177° -
O FMNM APT - 0 ft / 0 m -15.66714˚ 46.35183˚ 60 nm 338 nm 176° / 176° PHILIBERT TSIRANANA

Altitude Profile

Advertisement - Login to hide

Weather


0- 5 10 15 20 25 30 35+ Temperature / ° C

Clouds and Precipitation
Forecast for 2017-12-15 00:00 UTC. Updated a few seconds ago

Ground ~20,000 ft ~40,000 ft Winds

FMCH

Details ICAO FMCH (HAH)
Name PRINCE SAID IBRAHIM
Region Comoros, Mayotte, Réunion and Madagascar
Timezone Indian/Comoro (UTC+3.0)
Stats Elevation 93 ft / 28 m (AMSL)
Location -11.533663° 43.271848°
Runways 1
Magnetic Variation 6.419° W

METAR

Not found

TAF

TAF FMCH 141700Z 1418/1524 07003KT 9999 FEW020 SCT030 BECMG 1504/1506 31010KT PROB40 TEMPO 1408/1416 4500 SHRA TSRA FEW020CB BKN030 BECMG 1516/1518 08003KT

Decode

Departure Runways

ID Width Length Bearing (true) Bearing (mag) Surface Threshold Offset Overrun Length
02 148 ft / 45 m 9,576 ft / 2,919 m 9.88° 16.30° Asphalt 0 ft / 0 m 200 ft / 61 m
20 148 ft / 45 m 9,576 ft / 2,919 m 189.88° 196.30° Asphalt 0 ft / 0 m 200 ft / 61 m

FMNM

Details ICAO FMNM (MJN)
Name PHILIBERT TSIRANANA
Region Comoros, Mayotte, Réunion and Madagascar
Timezone Indian/Antananarivo (UTC+3.0)
Stats Elevation 87 ft / 27 m (AMSL)
Location -15.667144° 46.351829°
Runways 1
Magnetic Variation 11.235° W

METAR

FMNM 142300Z 00000KT 9999 FEW020CB 27/25 Q1011

Decode

TAF

TAF FMNM 141700Z 1418/1518 28006KT 9999 SCT020CB BKN040 PROB30 TEMPO 1418/1506 12010KT 4500 TSRA

Decode

Destination Runways

ID Width Length Bearing (true) Bearing (mag) Surface Threshold Offset Overrun Length
14 148 ft / 45 m 7,235 ft / 2,205 m 132.37° 143.60° Asphalt 0 ft / 0 m 98 ft / 30 m
32 148 ft / 45 m 7,235 ft / 2,205 m 312.37° 323.60° Asphalt 0 ft / 0 m 98 ft / 30 m